AFL676 URKK-LTAI
Flight info
| Callsign | AFL676 |
|---|---|
| Flight time | 1h 36m |
| Altitude | 36000 |
| Route | K0839F360 RULAB G900 ODIRA UW96 SIN UT61 BAG/N0450F350 UW77 HISAR |
| Aircraft | A320/M-SDE2E3FGHIJ1RWY/LB1U1 |
Departure
| Time | 2026-05-06 09:42 |
|---|---|
| Airport | Krasnodar Pashkovsky International Airport (URKK) |
Arrival
| Time | 2026-05-06 11:19 |
|---|---|
| Airport | Antalya International Airport (LTAI) |
| Time | Latitude | Longitude | Altitude | Speed | Heading |
|---|---|---|---|---|---|
| 2026-05-06 09:09 | 45.03471 | 39.14122 | 106 ft | 0 kts | 332° |
| 2026-05-06 09:11 | 45.03470 | 39.14122 | 106 ft | 0 kts | 332° |
| 2026-05-06 09:29 | 45.03456 | 39.14132 | 106 ft | 4 kts | 340° |
| 2026-05-06 09:30 | 45.03430 | 39.14139 | 106 ft | 4 kts | 7° |
| 2026-05-06 09:30 | 45.03407 | 39.14127 | 104 ft | 4 kts | 51° |
| 2026-05-06 09:30 | 45.03403 | 39.14119 | 106 ft | 0 kts | 60° |
| 2026-05-06 09:33 | 45.03404 | 39.14121 | 106 ft | 2 kts | 60° |
| 2026-05-06 09:33 | 45.03425 | 39.14174 | 106 ft | 10 kts | 61° |
| 2026-05-06 09:34 | 45.03468 | 39.14283 | 106 ft | 13 kts | 60° |
| 2026-05-06 09:34 | 45.03508 | 39.14385 | 106 ft | 11 kts | 60° |
| 2026-05-06 09:34 | 45.03550 | 39.14489 | 105 ft | 15 kts | 60° |
| 2026-05-06 09:34 | 45.03608 | 39.14635 | 106 ft | 20 kts | 60° |
| 2026-05-06 09:35 | 45.03683 | 39.14821 | 106 ft | 23 kts | 60° |
| 2026-05-06 09:35 | 45.03755 | 39.15004 | 106 ft | 17 kts | 61° |
| 2026-05-06 09:35 | 45.03806 | 39.15135 | 106 ft | 12 kts | 61° |
| 2026-05-06 09:35 | 45.03834 | 39.15224 | 105 ft | 9 kts | 80° |
| 2026-05-06 09:36 | 45.03822 | 39.15304 | 106 ft | 8 kts | 112° |
| 2026-05-06 09:36 | 45.03803 | 39.15367 | 106 ft | 8 kts | 112° |
| 2026-05-06 09:36 | 45.03774 | 39.15469 | 106 ft | 13 kts | 112° |
| 2026-05-06 09:36 | 45.03743 | 39.15586 | 106 ft | 12 kts | 106° |
| 2026-05-06 09:37 | 45.03736 | 39.15696 | 106 ft | 10 kts | 91° |
| 2026-05-06 09:37 | 45.03737 | 39.15840 | 106 ft | 20 kts | 89° |
| 2026-05-06 09:37 | 45.03739 | 39.16011 | 106 ft | 14 kts | 89° |
| 2026-05-06 09:37 | 45.03728 | 39.16107 | 106 ft | 9 kts | 124° |
| 2026-05-06 09:38 | 45.03683 | 39.16159 | 106 ft | 10 kts | 143° |
| 2026-05-06 09:38 | 45.03599 | 39.16250 | 105 ft | 20 kts | 142° |
| 2026-05-06 09:38 | 45.03468 | 39.16390 | 106 ft | 26 kts | 143° |
| 2026-05-06 09:38 | 45.03324 | 39.16548 | 106 ft | 27 kts | 142° |
| 2026-05-06 09:39 | 45.03177 | 39.16706 | 106 ft | 27 kts | 143° |
| 2026-05-06 09:39 | 45.03025 | 39.16869 | 106 ft | 28 kts | 142° |
| 2026-05-06 09:39 | 45.02880 | 39.17027 | 106 ft | 24 kts | 142° |
| 2026-05-06 09:39 | 45.02752 | 39.17170 | 107 ft | 19 kts | 142° |
| 2026-05-06 09:40 | 45.02676 | 39.17254 | 109 ft | 10 kts | 142° |
| 2026-05-06 09:40 | 45.02639 | 39.17294 | 111 ft | 4 kts | 142° |
| 2026-05-06 09:40 | 45.02631 | 39.17356 | 112 ft | 4 kts | 57° |
| 2026-05-06 09:41 | 45.02644 | 39.17379 | 111 ft | 2 kts | 52° |
| 2026-05-06 09:41 | 45.02698 | 39.17479 | 113 ft | 42 kts | 53° |
| 2026-05-06 09:41 | 45.03031 | 39.18094 | 114 ft | 111 kts | 52° |
| 2026-05-06 09:41 | 45.03616 | 39.19171 | 119 ft | 163 kts | 52° |
| 2026-05-06 09:42 | 45.04092 | 39.20038 | 422 ft | 168 kts | 53° |
| 2026-05-06 09:42 | 45.05035 | 39.21766 | 1419 ft | 168 kts | 51° |
| 2026-05-06 09:42 | 45.05746 | 39.23071 | 2099 ft | 168 kts | 52° |
| 2026-05-06 09:42 | 45.06453 | 39.24382 | 2724 ft | 167 kts | 52° |
| 2026-05-06 09:43 | 45.07157 | 39.25690 | 3326 ft | 168 kts | 52° |
| 2026-05-06 09:43 | 45.07910 | 39.27075 | 3626 ft | 188 kts | 51° |
| 2026-05-06 09:43 | 45.08761 | 39.28623 | 3890 ft | 210 kts | 51° |
| 2026-05-06 09:43 | 45.09348 | 39.29773 | 4055 ft | 226 kts | 63° |
| 2026-05-06 09:44 | 45.09571 | 39.32005 | 4582 ft | 239 kts | 104° |
| 2026-05-06 09:44 | 45.08716 | 39.33979 | 5352 ft | 239 kts | 143° |
| 2026-05-06 09:44 | 45.07357 | 39.35311 | 6211 ft | 239 kts | 147° |
| 2026-05-06 09:44 | 45.05512 | 39.37069 | 7200 ft | 245 kts | 146° |
| 2026-05-06 09:45 | 45.04112 | 39.38475 | 7918 ft | 249 kts | 145° |
| 2026-05-06 09:45 | 45.03141 | 39.39413 | 8424 ft | 251 kts | 155° |
| 2026-05-06 09:45 | 45.01444 | 39.39852 | 9165 ft | 251 kts | 189° |
| 2026-05-06 09:45 | 44.99843 | 39.38999 | 9928 ft | 254 kts | 216° |
| 2026-05-06 09:46 | 44.98653 | 39.37132 | 10534 ft | 260 kts | 236° |
| 2026-05-06 09:46 | 44.97584 | 39.35050 | 11229 ft | 264 kts | 233° |
| 2026-05-06 09:46 | 44.96456 | 39.32985 | 11951 ft | 267 kts | 232° |
| 2026-05-06 09:46 | 44.95294 | 39.30912 | 12688 ft | 270 kts | 231° |
| 2026-05-06 09:47 | 44.94088 | 39.28776 | 13049 ft | 289 kts | 232° |
| 2026-05-06 09:47 | 44.92806 | 39.26444 | 13245 ft | 313 kts | 232° |
| 2026-05-06 09:47 | 44.91448 | 39.23907 | 13420 ft | 335 kts | 236° |
| 2026-05-06 09:47 | 44.90349 | 39.20898 | 13613 ft | 354 kts | 251° |
| 2026-05-06 09:48 | 44.89786 | 39.17480 | 14101 ft | 362 kts | 263° |
| 2026-05-06 09:48 | 44.89471 | 39.13941 | 14689 ft | 366 kts | 263° |
| 2026-05-06 09:48 | 44.89146 | 39.10420 | 15328 ft | 368 kts | 263° |
| 2026-05-06 09:48 | 44.88811 | 39.06828 | 15968 ft | 371 kts | 262° |
| 2026-05-06 09:49 | 44.88473 | 39.03209 | 16585 ft | 374 kts | 262° |
| 2026-05-06 09:49 | 44.88074 | 38.99567 | 17161 ft | 378 kts | 256° |
| 2026-05-06 09:49 | 44.87201 | 38.96070 | 17756 ft | 381 kts | 244° |
| 2026-05-06 09:49 | 44.85795 | 38.92898 | 18330 ft | 383 kts | 231° |
| 2026-05-06 09:50 | 44.84007 | 38.90092 | 18839 ft | 386 kts | 227° |
| 2026-05-06 09:50 | 44.82174 | 38.87308 | 19354 ft | 389 kts | 227° |
| 2026-05-06 09:50 | 44.80329 | 38.84512 | 19862 ft | 391 kts | 226° |
| 2026-05-06 09:50 | 44.78468 | 38.81690 | 20354 ft | 394 kts | 226° |
| 2026-05-06 09:51 | 44.76450 | 38.79157 | 20833 ft | 396 kts | 216° |
| 2026-05-06 09:51 | 44.74179 | 38.76934 | 21320 ft | 399 kts | 214° |
| 2026-05-06 09:51 | 44.71891 | 38.74720 | 21845 ft | 400 kts | 213° |
| 2026-05-06 09:51 | 44.69592 | 38.72500 | 22351 ft | 402 kts | 214° |
| 2026-05-06 09:52 | 44.67281 | 38.70269 | 22815 ft | 404 kts | 213° |
| 2026-05-06 09:52 | 44.64956 | 38.68024 | 23285 ft | 407 kts | 214° |
| 2026-05-06 09:52 | 44.62618 | 38.65765 | 23735 ft | 409 kts | 213° |
| 2026-05-06 09:52 | 44.60262 | 38.63491 | 24114 ft | 412 kts | 213° |
| 2026-05-06 09:53 | 44.57895 | 38.61209 | 24478 ft | 415 kts | 213° |
| 2026-05-06 09:53 | 44.55508 | 38.58912 | 24822 ft | 418 kts | 213° |
| 2026-05-06 09:53 | 44.53106 | 38.56602 | 25174 ft | 420 kts | 213° |
| 2026-05-06 09:53 | 44.50722 | 38.54311 | 25519 ft | 423 kts | 213° |
| 2026-05-06 09:54 | 44.48286 | 38.51975 | 25865 ft | 425 kts | 213° |
| 2026-05-06 09:54 | 44.45840 | 38.49634 | 26214 ft | 427 kts | 212° |
| 2026-05-06 09:54 | 44.43380 | 38.47280 | 26558 ft | 430 kts | 212° |
| 2026-05-06 09:54 | 44.40901 | 38.44913 | 26896 ft | 432 kts | 212° |
| 2026-05-06 09:55 | 44.38413 | 38.42537 | 27247 ft | 435 kts | 212° |
| 2026-05-06 09:55 | 44.35912 | 38.40147 | 27585 ft | 437 kts | 212° |
| 2026-05-06 09:55 | 44.33401 | 38.37736 | 27915 ft | 439 kts | 212° |
| 2026-05-06 09:55 | 44.30880 | 38.35304 | 28249 ft | 441 kts | 212° |
| 2026-05-06 09:56 | 44.28387 | 38.32889 | 28555 ft | 443 kts | 212° |
| 2026-05-06 09:56 | 44.25847 | 38.30434 | 28849 ft | 445 kts | 211° |
| 2026-05-06 09:56 | 44.23274 | 38.28010 | 29145 ft | 447 kts | 211° |
| 2026-05-06 09:56 | 44.20670 | 38.25617 | 29425 ft | 449 kts | 210° |
| 2026-05-06 09:57 | 44.18044 | 38.23231 | 29712 ft | 451 kts | 210° |
| 2026-05-06 09:57 | 44.15408 | 38.20843 | 29984 ft | 454 kts | 210° |
| 2026-05-06 09:57 | 44.12758 | 38.18441 | 30236 ft | 456 kts | 210° |
| 2026-05-06 09:57 | 44.10097 | 38.16018 | 30470 ft | 458 kts | 210° |
| 2026-05-06 09:58 | 44.07438 | 38.13583 | 30769 ft | 458 kts | 210° |
| 2026-05-06 09:58 | 44.04780 | 38.11145 | 31076 ft | 458 kts | 210° |
| 2026-05-06 09:58 | 44.02124 | 38.08708 | 31363 ft | 458 kts | 210° |
| 2026-05-06 09:58 | 43.99461 | 38.06264 | 31640 ft | 459 kts | 210° |
| 2026-05-06 09:59 | 43.96835 | 38.03852 | 31932 ft | 459 kts | 211° |
| 2026-05-06 09:59 | 43.94169 | 38.01403 | 32216 ft | 460 kts | 211° |
| 2026-05-06 09:59 | 43.91500 | 37.98957 | 32500 ft | 460 kts | 211° |
| 2026-05-06 09:59 | 43.88829 | 37.96512 | 32782 ft | 461 kts | 211° |
| 2026-05-06 10:00 | 43.86150 | 37.94063 | 33071 ft | 461 kts | 211° |
| 2026-05-06 10:00 | 43.83468 | 37.91613 | 33350 ft | 462 kts | 211° |
| 2026-05-06 10:00 | 43.80787 | 37.89170 | 33669 ft | 462 kts | 211° |
| 2026-05-06 10:00 | 43.78102 | 37.86726 | 33968 ft | 462 kts | 211° |
| 2026-05-06 10:01 | 43.75414 | 37.84286 | 34103 ft | 462 kts | 211° |
| 2026-05-06 10:01 | 43.72727 | 37.81853 | 34123 ft | 461 kts | 211° |
| 2026-05-06 10:01 | 43.67401 | 37.77037 | 34122 ft | 461 kts | 211° |
| 2026-05-06 10:02 | 43.62031 | 37.72172 | 34126 ft | 461 kts | 211° |
| 2026-05-06 10:02 | 43.56665 | 37.67319 | 34125 ft | 461 kts | 211° |
| 2026-05-06 10:03 | 43.51291 | 37.62479 | 34129 ft | 461 kts | 211° |
| 2026-05-06 10:03 | 43.45916 | 37.57644 | 34133 ft | 461 kts | 211° |
| 2026-05-06 10:04 | 43.40575 | 37.52855 | 34129 ft | 461 kts | 211° |
| 2026-05-06 10:04 | 43.35194 | 37.48047 | 34140 ft | 461 kts | 211° |
| 2026-05-06 10:05 | 43.29820 | 37.43253 | 34145 ft | 460 kts | 211° |
| 2026-05-06 10:05 | 43.24452 | 37.38466 | 34143 ft | 460 kts | 211° |
| 2026-05-06 10:06 | 43.19087 | 37.33698 | 34150 ft | 459 kts | 211° |
| 2026-05-06 10:06 | 43.13719 | 37.28949 | 34150 ft | 459 kts | 211° |
| 2026-05-06 10:07 | 43.08399 | 37.24245 | 34155 ft | 458 kts | 211° |
| 2026-05-06 10:07 | 43.03049 | 37.19530 | 34153 ft | 457 kts | 211° |
| 2026-05-06 10:08 | 42.97696 | 37.14838 | 34151 ft | 457 kts | 211° |
| 2026-05-06 10:08 | 42.92344 | 37.10152 | 34146 ft | 457 kts | 211° |
| 2026-05-06 10:09 | 42.86997 | 37.05480 | 34144 ft | 457 kts | 211° |
| 2026-05-06 10:09 | 42.81676 | 37.00852 | 34144 ft | 457 kts | 211° |
| 2026-05-06 10:10 | 42.76319 | 36.96197 | 34142 ft | 457 kts | 211° |
| 2026-05-06 10:10 | 42.71412 | 36.90704 | 34142 ft | 460 kts | 227° |
| 2026-05-06 10:11 | 42.67959 | 36.83400 | 34140 ft | 462 kts | 243° |
| 2026-05-06 10:11 | 42.65121 | 36.75565 | 34136 ft | 462 kts | 243° |
| 2026-05-06 10:12 | 42.62280 | 36.67741 | 34135 ft | 462 kts | 243° |
| 2026-05-06 10:12 | 42.59438 | 36.59973 | 34140 ft | 463 kts | 243° |
| 2026-05-06 10:13 | 42.56567 | 36.52161 | 34143 ft | 463 kts | 243° |
| 2026-05-06 10:13 | 42.53703 | 36.44342 | 34145 ft | 463 kts | 243° |
| 2026-05-06 10:14 | 42.50842 | 36.36531 | 34149 ft | 463 kts | 243° |
| 2026-05-06 10:14 | 42.47957 | 36.28725 | 34148 ft | 463 kts | 243° |
| 2026-05-06 10:15 | 42.45068 | 36.20931 | 34150 ft | 463 kts | 243° |
| 2026-05-06 10:15 | 42.42174 | 36.13129 | 34148 ft | 464 kts | 243° |
| 2026-05-06 10:16 | 42.39300 | 36.05392 | 34147 ft | 464 kts | 243° |
| 2026-05-06 10:16 | 42.36395 | 35.97603 | 34149 ft | 464 kts | 243° |
| 2026-05-06 10:17 | 42.33483 | 35.89831 | 34150 ft | 463 kts | 243° |
| 2026-05-06 10:17 | 42.30564 | 35.82065 | 34150 ft | 463 kts | 243° |
| 2026-05-06 10:18 | 42.27646 | 35.74307 | 34147 ft | 463 kts | 243° |
| 2026-05-06 10:18 | 42.24723 | 35.66555 | 34147 ft | 463 kts | 243° |
| 2026-05-06 10:19 | 42.21802 | 35.58820 | 34150 ft | 463 kts | 243° |
| 2026-05-06 10:19 | 42.18893 | 35.51142 | 34150 ft | 463 kts | 243° |
| 2026-05-06 10:20 | 42.15954 | 35.43427 | 34147 ft | 462 kts | 243° |
| 2026-05-06 10:20 | 42.13017 | 35.35720 | 34133 ft | 462 kts | 243° |
| 2026-05-06 10:21 | 42.10090 | 35.28023 | 34136 ft | 462 kts | 243° |
| 2026-05-06 10:21 | 42.07163 | 35.20326 | 34138 ft | 462 kts | 243° |
| 2026-05-06 10:22 | 42.04231 | 35.12646 | 34123 ft | 461 kts | 244° |
| 2026-05-06 10:22 | 42.00583 | 35.05634 | 34129 ft | 462 kts | 226° |
| 2026-05-06 10:23 | 41.95823 | 34.99826 | 34125 ft | 462 kts | 222° |
| 2026-05-06 10:23 | 41.91020 | 34.94077 | 34119 ft | 462 kts | 222° |
| 2026-05-06 10:24 | 41.86223 | 34.88333 | 34109 ft | 462 kts | 223° |
| 2026-05-06 10:24 | 41.81424 | 34.82588 | 34102 ft | 462 kts | 223° |
| 2026-05-06 10:25 | 41.76624 | 34.76861 | 34102 ft | 462 kts | 222° |
| 2026-05-06 10:25 | 41.71841 | 34.71181 | 34088 ft | 462 kts | 223° |
| 2026-05-06 10:26 | 41.67025 | 34.65476 | 34082 ft | 462 kts | 223° |
| 2026-05-06 10:26 | 41.62212 | 34.59772 | 34079 ft | 462 kts | 223° |
| 2026-05-06 10:27 | 41.57399 | 34.54086 | 34067 ft | 462 kts | 223° |
| 2026-05-06 10:27 | 41.52593 | 34.48388 | 34066 ft | 462 kts | 223° |
| 2026-05-06 10:28 | 41.47837 | 34.42723 | 34064 ft | 462 kts | 223° |
| 2026-05-06 10:28 | 41.43039 | 34.37028 | 34055 ft | 462 kts | 224° |
| 2026-05-06 10:29 | 41.38238 | 34.31356 | 34072 ft | 461 kts | 224° |
| 2026-05-06 10:29 | 41.33434 | 34.25687 | 34075 ft | 461 kts | 224° |
| 2026-05-06 10:30 | 41.28632 | 34.20036 | 34088 ft | 461 kts | 224° |
| 2026-05-06 10:30 | 41.23818 | 34.14405 | 34095 ft | 461 kts | 224° |
| 2026-05-06 10:31 | 41.19036 | 34.08816 | 34096 ft | 461 kts | 224° |
| 2026-05-06 10:31 | 41.14224 | 34.03193 | 34087 ft | 461 kts | 224° |
| 2026-05-06 10:32 | 41.09411 | 33.97590 | 34087 ft | 460 kts | 224° |
| 2026-05-06 10:32 | 41.04594 | 33.92001 | 34090 ft | 460 kts | 224° |
| 2026-05-06 10:33 | 40.99779 | 33.86420 | 34082 ft | 460 kts | 224° |
| 2026-05-06 10:33 | 40.94961 | 33.80840 | 34086 ft | 460 kts | 224° |
| 2026-05-06 10:34 | 40.90144 | 33.75279 | 34081 ft | 460 kts | 224° |
| 2026-05-06 10:34 | 40.85345 | 33.69757 | 34079 ft | 460 kts | 224° |
| 2026-05-06 10:35 | 40.80518 | 33.64210 | 34087 ft | 460 kts | 224° |
| 2026-05-06 10:35 | 40.75691 | 33.58665 | 34085 ft | 460 kts | 224° |
| 2026-05-06 10:36 | 40.70863 | 33.53138 | 34077 ft | 460 kts | 224° |
| 2026-05-06 10:36 | 40.66038 | 33.47613 | 34080 ft | 459 kts | 224° |
| 2026-05-06 10:37 | 40.61246 | 33.42136 | 34065 ft | 459 kts | 224° |
| 2026-05-06 10:37 | 40.56415 | 33.36638 | 34079 ft | 459 kts | 225° |
| 2026-05-06 10:38 | 40.51585 | 33.31154 | 34087 ft | 459 kts | 225° |
| 2026-05-06 10:38 | 40.46762 | 33.25676 | 34068 ft | 458 kts | 225° |
| 2026-05-06 10:39 | 40.41938 | 33.20211 | 34080 ft | 458 kts | 225° |
| 2026-05-06 10:39 | 40.37113 | 33.14757 | 34088 ft | 458 kts | 225° |
| 2026-05-06 10:40 | 40.32317 | 33.09354 | 34072 ft | 458 kts | 226° |
| 2026-05-06 10:40 | 40.27485 | 33.03917 | 34087 ft | 458 kts | 226° |
| 2026-05-06 10:41 | 40.22652 | 32.98494 | 34098 ft | 458 kts | 226° |
| 2026-05-06 10:41 | 40.17810 | 32.93081 | 34074 ft | 458 kts | 226° |
| 2026-05-06 10:42 | 40.12976 | 32.87673 | 34092 ft | 457 kts | 226° |
| 2026-05-06 10:42 | 40.08123 | 32.82288 | 34090 ft | 459 kts | 223° |
| 2026-05-06 10:43 | 40.02574 | 32.78011 | 34071 ft | 467 kts | 212° |
| 2026-05-06 10:44 | 39.93952 | 32.72232 | 34078 ft | 466 kts | 212° |
| 2026-05-06 10:44 | 39.88184 | 32.68369 | 34088 ft | 466 kts | 212° |
| 2026-05-06 10:45 | 39.82414 | 32.64515 | 34100 ft | 466 kts | 212° |
| 2026-05-06 10:45 | 39.76644 | 32.60662 | 34081 ft | 466 kts | 212° |
| 2026-05-06 10:46 | 39.70881 | 32.56819 | 34082 ft | 466 kts | 212° |
| 2026-05-06 10:46 | 39.65117 | 32.52995 | 34096 ft | 465 kts | 212° |
| 2026-05-06 10:47 | 39.59359 | 32.49187 | 34106 ft | 464 kts | 212° |
| 2026-05-06 10:47 | 39.53644 | 32.45407 | 34111 ft | 464 kts | 212° |
| 2026-05-06 10:48 | 39.47902 | 32.41622 | 34116 ft | 463 kts | 212° |
| 2026-05-06 10:48 | 39.42163 | 32.37839 | 34118 ft | 462 kts | 212° |
| 2026-05-06 10:49 | 39.36439 | 32.34071 | 34112 ft | 461 kts | 212° |
| 2026-05-06 10:49 | 39.30718 | 32.30336 | 34124 ft | 460 kts | 211° |
| 2026-05-06 10:50 | 39.25008 | 32.26624 | 34121 ft | 459 kts | 211° |
| 2026-05-06 10:50 | 39.19351 | 32.22947 | 34128 ft | 458 kts | 211° |
| 2026-05-06 10:51 | 39.13667 | 32.19254 | 34129 ft | 457 kts | 211° |
| 2026-05-06 10:51 | 39.07988 | 32.15576 | 34121 ft | 457 kts | 211° |
| 2026-05-06 10:52 | 39.02316 | 32.11906 | 34126 ft | 456 kts | 211° |
| 2026-05-06 10:52 | 38.96649 | 32.08257 | 34125 ft | 455 kts | 211° |
| 2026-05-06 10:53 | 38.90987 | 32.04616 | 34114 ft | 455 kts | 211° |
| 2026-05-06 10:53 | 38.85371 | 32.01002 | 34125 ft | 454 kts | 211° |
| 2026-05-06 10:54 | 38.79726 | 31.97369 | 34117 ft | 454 kts | 211° |
| 2026-05-06 10:54 | 38.74085 | 31.93745 | 34116 ft | 453 kts | 211° |
| 2026-05-06 10:55 | 38.68449 | 31.90145 | 34122 ft | 453 kts | 211° |
| 2026-05-06 10:55 | 38.62815 | 31.86547 | 34119 ft | 452 kts | 211° |
| 2026-05-06 10:56 | 38.57223 | 31.82983 | 34107 ft | 452 kts | 210° |
| 2026-05-06 10:56 | 38.51599 | 31.79407 | 34101 ft | 452 kts | 210° |
| 2026-05-06 10:57 | 38.45968 | 31.75833 | 34093 ft | 452 kts | 210° |
| 2026-05-06 10:57 | 38.40325 | 31.72263 | 34088 ft | 453 kts | 210° |
| 2026-05-06 10:58 | 38.34699 | 31.68711 | 33495 ft | 449 kts | 210° |
| 2026-05-06 10:58 | 38.31897 | 31.66935 | 32666 ft | 451 kts | 210° |
| 2026-05-06 10:58 | 38.29081 | 31.65152 | 31803 ft | 453 kts | 210° |
| 2026-05-06 10:58 | 38.26259 | 31.63369 | 31085 ft | 452 kts | 210° |
| 2026-05-06 10:59 | 38.23455 | 31.61599 | 30498 ft | 448 kts | 210° |
| 2026-05-06 10:59 | 38.20709 | 31.59871 | 29876 ft | 445 kts | 210° |
| 2026-05-06 10:59 | 38.17947 | 31.58134 | 29240 ft | 441 kts | 210° |
| 2026-05-06 10:59 | 38.15209 | 31.56419 | 28623 ft | 437 kts | 209° |
| 2026-05-06 11:00 | 38.12384 | 31.55000 | 28009 ft | 437 kts | 200° |
| 2026-05-06 11:00 | 38.09432 | 31.54120 | 27395 ft | 437 kts | 192° |
| 2026-05-06 11:00 | 38.06408 | 31.53781 | 26838 ft | 435 kts | 185° |
| 2026-05-06 11:00 | 38.03400 | 31.53602 | 26266 ft | 431 kts | 185° |
| 2026-05-06 11:01 | 38.00415 | 31.53419 | 25798 ft | 428 kts | 186° |
| 2026-05-06 11:01 | 37.97480 | 31.52935 | 25543 ft | 423 kts | 199° |
| 2026-05-06 11:01 | 37.94842 | 31.51420 | 25309 ft | 413 kts | 218° |
| 2026-05-06 11:01 | 37.92771 | 31.48990 | 25067 ft | 403 kts | 236° |
| 2026-05-06 11:02 | 37.91456 | 31.45911 | 24823 ft | 395 kts | 253° |
| 2026-05-06 11:02 | 37.90613 | 31.42612 | 24586 ft | 393 kts | 256° |
| 2026-05-06 11:02 | 37.89824 | 31.39367 | 24097 ft | 389 kts | 256° |
| 2026-05-06 11:02 | 37.89032 | 31.36107 | 23530 ft | 386 kts | 256° |
| 2026-05-06 11:03 | 37.88247 | 31.32872 | 22942 ft | 383 kts | 256° |
| 2026-05-06 11:03 | 37.87469 | 31.29652 | 22362 ft | 380 kts | 256° |
| 2026-05-06 11:03 | 37.86702 | 31.26460 | 21820 ft | 378 kts | 256° |
| 2026-05-06 11:03 | 37.85945 | 31.23294 | 21277 ft | 375 kts | 256° |
| 2026-05-06 11:04 | 37.85202 | 31.20149 | 20752 ft | 372 kts | 256° |
| 2026-05-06 11:04 | 37.84467 | 31.17017 | 20240 ft | 370 kts | 256° |
| 2026-05-06 11:04 | 37.83742 | 31.13915 | 19760 ft | 367 kts | 256° |
| 2026-05-06 11:04 | 37.82815 | 31.10915 | 19282 ft | 368 kts | 242° |
| 2026-05-06 11:05 | 37.81216 | 31.08395 | 18825 ft | 370 kts | 224° |
| 2026-05-06 11:05 | 37.79050 | 31.06650 | 18383 ft | 372 kts | 205° |
| 2026-05-06 11:05 | 37.76616 | 31.05559 | 17664 ft | 371 kts | 201° |
| 2026-05-06 11:05 | 37.74175 | 31.04535 | 16958 ft | 369 kts | 200° |
| 2026-05-06 11:06 | 37.71738 | 31.03536 | 16292 ft | 366 kts | 200° |
| 2026-05-06 11:06 | 37.69357 | 31.02566 | 15644 ft | 363 kts | 200° |
| 2026-05-06 11:06 | 37.66965 | 31.01587 | 14981 ft | 361 kts | 200° |
| 2026-05-06 11:06 | 37.64581 | 31.00605 | 14333 ft | 359 kts | 200° |
| 2026-05-06 11:07 | 37.62221 | 30.99625 | 13703 ft | 356 kts | 200° |
| 2026-05-06 11:07 | 37.59873 | 30.98647 | 12970 ft | 355 kts | 200° |
| 2026-05-06 11:07 | 37.57549 | 30.97680 | 12419 ft | 348 kts | 199° |
| 2026-05-06 11:07 | 37.56038 | 30.97053 | 12029 ft | 344 kts | 199° |
| 2026-05-06 11:08 | 37.53776 | 30.96116 | 11431 ft | 339 kts | 199° |
| 2026-05-06 11:08 | 37.51547 | 30.95191 | 10791 ft | 336 kts | 199° |
| 2026-05-06 11:08 | 37.49356 | 30.94283 | 10495 ft | 323 kts | 199° |
| 2026-05-06 11:08 | 37.47276 | 30.93424 | 10373 ft | 307 kts | 199° |
| 2026-05-06 11:09 | 37.45285 | 30.92603 | 10168 ft | 296 kts | 199° |
| 2026-05-06 11:09 | 37.43346 | 30.91800 | 9838 ft | 292 kts | 199° |
| 2026-05-06 11:09 | 37.40806 | 30.90748 | 9394 ft | 289 kts | 199° |
| 2026-05-06 11:09 | 37.39520 | 30.90216 | 9203 ft | 285 kts | 199° |
| 2026-05-06 11:10 | 37.37668 | 30.89452 | 9070 ft | 275 kts | 199° |
| 2026-05-06 11:10 | 37.35879 | 30.88715 | 8925 ft | 266 kts | 199° |
| 2026-05-06 11:10 | 37.34155 | 30.88004 | 8807 ft | 256 kts | 199° |
| 2026-05-06 11:10 | 37.32488 | 30.87317 | 8674 ft | 248 kts | 199° |
| 2026-05-06 11:11 | 37.30896 | 30.86668 | 8537 ft | 240 kts | 197° |
| 2026-05-06 11:11 | 37.29282 | 30.86235 | 8408 ft | 234 kts | 193° |
| 2026-05-06 11:11 | 37.27707 | 30.85829 | 8241 ft | 229 kts | 192° |
| 2026-05-06 11:11 | 37.26152 | 30.85423 | 8001 ft | 228 kts | 193° |
| 2026-05-06 11:12 | 37.24599 | 30.85016 | 7756 ft | 227 kts | 193° |
| 2026-05-06 11:12 | 37.23057 | 30.84612 | 7486 ft | 227 kts | 193° |
| 2026-05-06 11:12 | 37.21513 | 30.84209 | 7241 ft | 226 kts | 193° |
| 2026-05-06 11:12 | 37.19975 | 30.83808 | 6996 ft | 225 kts | 193° |
| 2026-05-06 11:13 | 37.18444 | 30.83409 | 6753 ft | 225 kts | 193° |
| 2026-05-06 11:13 | 37.16920 | 30.83012 | 6565 ft | 221 kts | 193° |
| 2026-05-06 11:13 | 37.15428 | 30.82754 | 6465 ft | 211 kts | 187° |
| 2026-05-06 11:13 | 37.14006 | 30.82562 | 6282 ft | 202 kts | 187° |
| 2026-05-06 11:14 | 37.12639 | 30.82376 | 5979 ft | 199 kts | 187° |
| 2026-05-06 11:14 | 37.11262 | 30.82187 | 5682 ft | 198 kts | 187° |
| 2026-05-06 11:14 | 37.09894 | 30.81998 | 5346 ft | 198 kts | 187° |
| 2026-05-06 11:14 | 37.08535 | 30.81811 | 5016 ft | 196 kts | 187° |
| 2026-05-06 11:15 | 37.07181 | 30.81624 | 4618 ft | 197 kts | 187° |
| 2026-05-06 11:15 | 37.05814 | 30.81436 | 4201 ft | 197 kts | 186° |
| 2026-05-06 11:15 | 37.04458 | 30.81249 | 3802 ft | 196 kts | 186° |
| 2026-05-06 11:15 | 37.03104 | 30.81063 | 3377 ft | 195 kts | 186° |
| 2026-05-06 11:16 | 37.01774 | 30.80880 | 2940 ft | 191 kts | 186° |
| 2026-05-06 11:16 | 37.00459 | 30.80707 | 2450 ft | 188 kts | 185° |
| 2026-05-06 11:16 | 36.99164 | 30.80554 | 2024 ft | 186 kts | 184° |
| 2026-05-06 11:16 | 36.97906 | 30.80364 | 1615 ft | 182 kts | 187° |
| 2026-05-06 11:17 | 36.96700 | 30.80179 | 1328 ft | 169 kts | 185° |
| 2026-05-06 11:17 | 36.95603 | 30.80029 | 1107 ft | 151 kts | 185° |
| 2026-05-06 11:17 | 36.94599 | 30.79900 | 839 ft | 138 kts | 185° |
| 2026-05-06 11:17 | 36.93659 | 30.79764 | 615 ft | 133 kts | 185° |
| 2026-05-06 11:18 | 36.92749 | 30.79652 | 434 ft | 129 kts | 186° |
| 2026-05-06 11:18 | 36.91861 | 30.79526 | 291 ft | 129 kts | 185° |
| 2026-05-06 11:18 | 36.90983 | 30.79397 | 202 ft | 121 kts | 185° |
| 2026-05-06 11:18 | 36.90301 | 30.79308 | 192 ft | 74 kts | 186° |
| 2026-05-06 11:19 | 36.89956 | 30.79261 | 191 ft | 33 kts | 186° |
| 2026-05-06 11:19 | 36.89745 | 30.79233 | 193 ft | 29 kts | 186° |
| 2026-05-06 11:19 | 36.89600 | 30.79228 | 192 ft | 18 kts | 162° |
| 2026-05-06 11:19 | 36.89483 | 30.79290 | 206 ft | 18 kts | 156° |
| 2026-05-06 11:20 | 36.89406 | 30.79348 | 198 ft | 8 kts | 124° |
| 2026-05-06 11:20 | 36.89406 | 30.79393 | 197 ft | 4 kts | 59° |
| 2026-05-06 11:20 | 36.89442 | 30.79410 | 192 ft | 7 kts | 6° |
| 2026-05-06 11:20 | 36.89504 | 30.79418 | 197 ft | 12 kts | 6° |
| 2026-05-06 11:21 | 36.89601 | 30.79431 | 192 ft | 10 kts | 6° |
| 2026-05-06 11:21 | 36.89658 | 30.79466 | 199 ft | 9 kts | 64° |
| 2026-05-06 11:21 | 36.89659 | 30.79537 | 192 ft | 8 kts | 96° |
| 2026-05-06 11:21 | 36.89654 | 30.79596 | 192 ft | 6 kts | 96° |
| 2026-05-06 11:22 | 36.89649 | 30.79654 | 197 ft | 8 kts | 96° |
| 2026-05-06 11:22 | 36.89643 | 30.79713 | 192 ft | 6 kts | 96° |
| 2026-05-06 11:22 | 36.89637 | 30.79786 | 192 ft | 13 kts | 96° |
| 2026-05-06 11:22 | 36.89625 | 30.79921 | 192 ft | 15 kts | 96° |
| 2026-05-06 11:23 | 36.89618 | 30.80007 | 203 ft | 8 kts | 95° |
| 2026-05-06 11:23 | 36.89649 | 30.80052 | 196 ft | 7 kts | 28° |
| 2026-05-06 11:23 | 36.89683 | 30.80075 | 207 ft | 3 kts | 29° |
| 2026-05-06 11:23 | 36.89696 | 30.80085 | 197 ft | 2 kts | 29° |